Flight Track Log - Related Links

Times and Time Zones

All times are in EDT time to prevent confusion due to time zone crossing. See the N84CQ flight status page for this flight to view local times or setup timezone preferences in your user account.

Time Position Orientation Groundspeed Altitude Reporting Facility
EDT Latitude Longitude Course Direction KTS MPH feet Rate Location/Type
Sun 06:18:40 PM 41.0333 -73.7000 270° West 158 182 2,100  Level New TRACON
Sun 06:19:34 PM 41.0333 -73.7500 270° West 198 228 2,900 454 Climbing New TRACON
Sun 06:20:39 PM 41.0667 -73.8167 304° West 227 261 3,000 1,200 Climbing New TRACON
Sun 06:21:34 PM 41.1000 -73.8500 323° Northwest 169 194 5,300 1,743 Climbing New TRACON
Sun 06:23:07 PM 41.1442 -73.7714 53° Northeast 212 244 7,300 1,255 Climbing Boston Center
Sun 06:24:07 PM 41.1614 -73.7194 66° East 200 230 8,500 1,550 Climbing Boston Center
Sun 06:25:07 PM 41.1956 -73.6428 59° Northeast 194 223 10,400 1,650 Climbing Boston Center
Sun 06:26:07 PM 41.2047 -73.5767 80° East 194 223 11,800 1,250 Climbing Boston Center
Sun 06:27:07 PM 41.2158 -73.4942 80° East 199 229 12,900 550 Climbing Boston Center
Sun 06:28:07 PM 41.2292 -73.4117 78° East 230 265 12,900  Level Boston Center
Sun 06:29:19 PM 41.2489 -73.2878 78° East 260 299 12,900  Level Boston Center
Sun 06:30:19 PM 41.2622 -73.1883 80° East 265 305 12,900 50 Level Boston Center
Sun 06:31:19 PM 41.2731 -73.1028 80° East 265 305 13,000 50 Climbing Boston Center
Sun 06:32:19 PM 41.2903 -72.9953 78° East 265 305 13,000  Level Boston Center
Sun 06:33:19 PM 41.3303 -72.9211 54° Northeast 260 299 13,000  Level Boston Center
Sun 06:34:19 PM 41.3536 -72.8217 73° East 260 299 13,000  Level Boston Center
Sun 06:35:19 PM 41.3517 -72.7333 92° East 257 296 13,000  Level Boston Center
Sun 06:36:19 PM 41.3500 -72.6253 91° East 262 302 13,000  Level Boston Center
Sun 06:37:19 PM 41.3478 -72.5369 92° East 267 307 13,000  Level Boston Center
Sun 06:38:19 PM 41.3542 -72.4236 86° East 267 307 13,000 -50 Level Boston Center
Sun 06:39:19 PM 41.3583 -72.3350 86° East 267 307 12,900 -189 Descending Boston Center
Sun 06:40:26 PM 41.3603 -72.2106 89° East 273 314 12,600 -476 Descending Boston Center
Sun 06:42:28 PM 41.3658 -72.0003 88° East 286 329 11,400 -557 Descending Boston Center
Sun 06:43:29 PM 41.3694 -71.8981 87° East 281 323 10,900 -649 Descending Boston Center
Sun 06:44:19 PM 41.3733 -71.8067 87° East 274 315 10,200 -709 Descending Boston Center
Sun 06:45:19 PM 41.3747 -71.7153 89° East 274 315 9,600 -650 Descending Boston Center
Sun 06:46:19 PM 41.3781 -71.5992 88° East 274 315 8,900 -300 Descending Boston Center
Sun 06:47:19 PM 41.3794 -71.5133 89° East 269 310 9,000 50 Climbing Boston Center
Sun 06:48:19 PM 41.3828 -71.4081 88° East 259 298 9,000  Level Boston Center
Sun 06:49:19 PM 41.3842 -71.3225 89° East 253 291 9,000 -250 Level Boston Center
Sun 06:50:19 PM 41.3831 -71.2339 91° East 253 291 8,500 -700 Descending Boston Center
Sun 06:51:19 PM 41.3861 -71.1231 88° East 263 303 7,600 -750 Descending Boston Center
Sun 06:52:19 PM 41.3889 -71.0125 88° East 269 310 7,000 -600 Descending Boston Center
Sun 06:53:19 PM 41.4044 -70.9317 76° East 269 310 6,400 -909 Descending Boston Center
Sun 06:54:31 PM 41.4575 -70.8419 52° Northeast 267 307 5,000 -1,364 Descending Boston Center
Sun 06:55:31 PM 41.5019 -70.7464 58° Northeast 265 305 3,400 -667 Descending Boston Center
Sun 06:57:00 PM 41.4338 -70.6631 90° East  Level Estimated
Sun 06:57:31 PM 41.5478 -70.6094 90° East 216 249 3,000  Level Boston Center
Sun 06:58:31 PM 41.5425 -70.5375 96° East 198 228 2,600 -500 Descending Boston Center
Sun 06:59:31 PM 41.5083 -70.4942 136° Southeast 192 221 2,000 -300 Descending Boston Center
Sun 07:00:31 PM 41.4794 -70.5200 214° Southwest 90 104 2,000 -300 Level Boston Center
Sun 07:01:31 PM 41.4531 -70.5483 219° Southwest 111 128 1,400 -500 Descending Boston Center
Sun 07:02:31 PM 41.4283 -70.5714 215° Southwest 124 143 1,000 -400 Descending Boston Center

Login

Don't have an account? Register now (free) for customized features, flight alerts, and more!